Time;durP1;ratioP1;P1;durP2;ratioP2;P2;SDS_P1;SDS_P2;PMS_P1;PMS_P2;Temp;Humidity;BMP_temperature;BMP_pressure;BME280_temperature;BME280_humidity;BME280_pressure;Samples;Min_cycle;Max_cycle;Signal;HPM_P1;HPM_P2
2022/03/03 00:01:35;;;;;;;17.83;12.47;;;2.90;99.90;;;;;;4917446;29;20184;-72
2022/03/03 00:04:01;;;;;;;24.33;13.10;;;2.90;99.90;;;;;;4913832;29;20245;-72
2022/03/03 00:06:27;;;;;;;18.27;11.90;;;2.90;99.90;;;;;;4916314;29;20197;-72
2022/03/03 00:08:53;;;;;;;20.60;12.77;;;2.80;99.90;;;;;;4916643;29;20188;-73
2022/03/03 00:11:18;;;;;;;19.77;12.90;;;2.80;99.90;;;;;;4916428;29;20215;-72
2022/03/03 00:13:44;;;;;;;19.37;13.20;;;2.80;99.90;;;;;;4916778;29;20192;-71
2022/03/03 00:16:10;;;;;;;20.03;12.90;;;2.70;99.90;;;;;;4916566;29;20215;-71
2022/03/03 00:18:36;;;;;;;20.23;13.37;;;2.70;99.90;;;;;;4916242;29;20243;-72
2022/03/03 00:21:02;;;;;;;21.37;12.70;;;2.70;99.90;;;;;;4923806;29;20188;-72
2022/03/03 00:23:27;;;;;;;19.83;13.80;;;2.70;99.90;;;;;;4935659;29;20248;-73
2022/03/03 00:25:53;;;;;;;20.07;12.50;;;2.70;99.90;;;;;;4916519;29;20181;-72
2022/03/03 00:28:19;;;;;;;17.37;12.23;;;2.60;99.90;;;;;;4920095;29;20200;-71
2022/03/03 00:30:44;;;;;;;19.73;13.07;;;2.60;99.90;;;;;;4921103;29;20309;-72
2022/03/03 00:33:10;;;;;;;17.43;12.27;;;2.50;99.90;;;;;;4923347;29;20279;-72
2022/03/03 00:35:35;;;;;;;18.43;11.93;;;2.50;99.90;;;;;;4915979;29;20593;-73
2022/03/03 00:38:01;;;;;;;17.70;12.93;;;2.40;99.90;;;;;;4922310;29;20227;-71
2022/03/03 00:40:27;;;;;;;16.90;12.30;;;2.40;99.90;;;;;;4936621;29;20182;-72
2022/03/03 00:42:52;;;;;;;22.40;12.60;;;2.40;99.90;;;;;;4934903;29;20185;-72
2022/03/03 00:45:18;;;;;;;16.73;11.77;;;2.40;99.90;;;;;;4932426;29;20187;-72
2022/03/03 00:47:44;;;;;;;20.00;13.40;;;2.40;99.90;;;;;;4932365;29;20258;-71
2022/03/03 00:50:09;;;;;;;18.77;13.10;;;2.40;99.90;;;;;;4929774;29;20307;-71
2022/03/03 00:52:36;;;;;;;18.03;12.33;;;2.40;99.90;;;;;;4915913;29;20186;-72
2022/03/03 00:55:02;;;;;;;19.27;12.63;;;2.40;99.90;;;;;;4915906;29;20278;-71
2022/03/03 00:57:28;;;;;;;16.93;11.83;;;2.40;99.90;;;;;;4915942;29;20215;-71
2022/03/03 00:59:53;;;;;;;18.60;12.60;;;2.40;99.90;;;;;;4915809;29;20200;-72
2022/03/03 01:02:19;;;;;;;19.83;12.40;;;2.40;99.90;;;;;;4932995;29;20191;-70
2022/03/03 01:04:45;;;;;;;18.27;12.03;;;2.40;99.90;;;;;;4929340;29;20185;-71
2022/03/03 01:07:10;;;;;;;19.80;12.37;;;2.30;99.90;;;;;;4943928;28;20284;-71
2022/03/03 01:09:36;;;;;;;16.77;11.87;;;2.30;99.90;;;;;;4915604;29;20268;-71
2022/03/03 01:12:02;;;;;;;19.33;12.40;;;2.30;99.90;;;;;;4915492;29;20570;-71
2022/03/03 01:14:27;;;;;;;19.43;12.37;;;2.20;99.90;;;;;;4918411;29;20204;-71
2022/03/03 01:16:53;;;;;;;19.10;12.33;;;2.30;99.90;;;;;;4928354;29;20199;-72
2022/03/03 01:19:19;;;;;;;17.30;11.70;;;2.30;99.90;;;;;;4931341;29;20210;-72
2022/03/03 01:21:45;;;;;;;17.50;11.63;;;2.20;99.90;;;;;;4924606;29;20179;-72
2022/03/03 01:24:10;;;;;;;20.07;11.80;;;2.20;99.90;;;;;;4917745;29;20594;-71
2022/03/03 01:26:36;;;;;;;16.20;11.77;;;2.20;99.90;;;;;;4926688;29;20196;-71
2022/03/03 01:29:03;;;;;;;18.93;11.47;;;2.10;99.90;;;;;;4920280;29;20215;-70
2022/03/03 01:31:31;;;;;;;17.10;12.17;;;2.10;99.90;;;;;;4918315;29;20689;-70
2022/03/03 01:33:56;;;;;;;17.13;12.03;;;2.10;99.90;;;;;;4933899;29;20176;-71
2022/03/03 01:36:22;;;;;;;18.07;11.97;;;2.10;99.90;;;;;;4922167;29;20203;-71
2022/03/03 01:38:48;;;;;;;16.53;11.90;;;2.00;99.90;;;;;;4915498;29;20196;-71
2022/03/03 01:41:13;;;;;;;17.07;11.70;;;2.00;99.90;;;;;;4925981;29;20177;-71
2022/03/03 01:43:39;;;;;;;19.40;13.07;;;2.00;99.90;;;;;;4915147;29;20191;-70
2022/03/03 01:46:05;;;;;;;16.67;10.77;;;2.00;99.90;;;;;;4924179;29;20213;-71
2022/03/03 01:48:31;;;;;;;16.53;11.00;;;2.00;99.90;;;;;;4935274;29;20233;-71
2022/03/03 01:50:56;;;;;;;18.80;11.60;;;2.00;99.90;;;;;;4934027;29;20202;-72
2022/03/03 01:53:22;;;;;;;16.80;10.87;;;1.90;99.90;;;;;;4933872;29;20231;-71
2022/03/03 01:55:50;;;;;;;16.17;10.60;;;1.90;99.90;;;;;;4926771;29;20171;-71
2022/03/03 01:58:16;;;;;;;16.90;11.00;;;1.90;99.90;;;;;;4933433;29;20213;-71
2022/03/03 02:00:45;;;;;;;17.77;11.77;;;1.90;99.90;;;;;;4905146;29;20182;-71
2022/03/03 02:03:11;;;;;;;17.10;10.93;;;1.90;99.90;;;;;;4904271;29;20294;-71
2022/03/03 02:05:37;;;;;;;15.57;10.97;;;1.90;99.90;;;;;;4922304;29;20200;-71
2022/03/03 02:08:04;;;;;;;17.07;11.37;;;1.90;99.90;;;;;;4914745;29;20204;-71
2022/03/03 02:10:31;;;;;;;16.07;10.47;;;1.90;99.90;;;;;;4917530;29;20283;-71
2022/03/03 02:12:57;;;;;;;16.33;10.57;;;1.80;99.90;;;;;;4914914;29;20679;-71
2022/03/03 02:15:23;;;;;;;16.53;10.37;;;1.80;99.90;;;;;;4917074;29;20254;-71
2022/03/03 02:17:49;;;;;;;15.63;10.30;;;1.80;99.90;;;;;;4933679;29;20213;-71
2022/03/03 02:20:23;;;;;;;16.60;10.27;;;1.80;99.90;;;;;;4931776;29;20256;-71
2022/03/03 02:22:50;;;;;;;15.87;10.40;;;1.80;99.90;;;;;;4923050;29;20180;-71
2022/03/03 02:25:17;;;;;;;16.13;10.57;;;1.80;99.90;;;;;;4919129;29;20305;-71
2022/03/03 02:27:44;;;;;;;17.13;10.63;;;1.80;99.90;;;;;;4920232;29;20196;-71
2022/03/03 02:30:11;;;;;;;14.00;10.13;;;1.80;99.90;;;;;;4923622;29;20193;-71
2022/03/03 02:32:37;;;;;;;17.43;11.07;;;1.80;99.90;;;;;;4918752;29;20531;-72
2022/03/03 02:35:03;;;;;;;15.87;10.67;;;1.80;99.90;;;;;;4918160;29;20187;-71
2022/03/03 02:37:37;;;;;;;15.53;10.43;;;1.80;99.90;;;;;;4918630;29;20655;-71
2022/03/03 02:40:08;;;;;;;16.20;10.37;;;1.80;99.90;;;;;;4918186;29;20235;-71
2022/03/03 02:42:34;;;;;;;16.10;10.03;;;1.80;99.90;;;;;;4918309;29;20180;-71
2022/03/03 02:45:01;;;;;;;19.53;11.43;;;1.70;99.90;;;;;;4914891;29;20240;-72
2022/03/03 02:47:27;;;;;;;13.67;10.00;;;1.70;99.90;;;;;;4912765;29;20213;-72
2022/03/03 02:49:53;;;;;;;21.10;10.97;;;1.70;99.90;;;;;;4922733;29;20184;-72
2022/03/03 02:52:19;;;;;;;17.97;11.13;;;1.70;99.90;;;;;;4935193;29;20187;-71
2022/03/03 02:54:44;;;;;;;15.30;10.13;;;1.70;99.90;;;;;;4926099;29;20176;-71
2022/03/03 02:59:54;;;;;;;17.37;11.90;;;1.70;99.90;;;;;;4933355;29;20202;-71
2022/03/03 03:02:20;;;;;;;18.00;11.97;;;1.70;99.90;;;;;;4917087;29;20637;-71
2022/03/03 03:04:45;;;;;;;17.93;11.53;;;1.70;99.90;;;;;;4916361;29;20248;-72
2022/03/03 03:07:11;;;;;;;18.57;11.53;;;1.70;99.90;;;;;;4916090;29;20220;-72
2022/03/03 03:09:37;;;;;;;18.43;11.50;;;1.70;99.90;;;;;;4919178;29;20191;-71
2022/03/03 03:12:03;;;;;;;16.50;11.80;;;1.70;99.90;;;;;;4931928;29;20212;-72
2022/03/03 03:14:29;;;;;;;20.33;12.07;;;1.60;99.90;;;;;;4935750;29;20786;-72
2022/03/03 03:16:54;;;;;;;18.63;11.80;;;1.60;99.90;;;;;;4920596;29;20291;-73
2022/03/03 03:19:21;;;;;;;21.50;11.17;;;1.50;99.90;;;;;;4916523;29;20246;-72
2022/03/03 03:21:46;;;;;;;19.77;12.10;;;1.50;99.90;;;;;;4925631;29;20175;-72
2022/03/03 03:24:18;;;;;;;19.13;12.23;;;1.50;99.90;;;;;;4931212;29;20224;-72
2022/03/03 03:26:43;;;;;;;17.47;11.73;;;1.50;99.90;;;;;;4924813;29;20710;-72
2022/03/03 03:29:09;;;;;;;18.10;12.20;;;1.40;99.90;;;;;;4919116;29;20287;-72
2022/03/03 03:31:35;;;;;;;16.50;11.67;;;1.50;99.90;;;;;;4916005;29;20597;-71
2022/03/03 03:34:00;;;;;;;18.37;11.63;;;1.50;99.90;;;;;;4916341;29;20184;-72
2022/03/03 03:36:26;;;;;;;19.00;11.87;;;1.50;99.90;;;;;;4916947;29;20237;-71
2022/03/03 03:38:51;;;;;;;17.63;12.07;;;1.50;99.90;;;;;;4914622;29;20755;-71
2022/03/03 03:41:17;;;;;;;19.80;11.90;;;1.40;99.90;;;;;;4917221;29;20597;-71
2022/03/03 03:43:43;;;;;;;19.13;11.70;;;1.40;99.90;;;;;;4935225;29;20183;-72
2022/03/03 03:46:09;;;;;;;16.53;11.77;;;1.40;99.90;;;;;;4924515;29;20228;-74
2022/03/03 03:48:34;;;;;;;18.67;11.97;;;1.40;99.90;;;;;;4935317;29;20271;-72
2022/03/03 03:51:00;;;;;;;19.67;12.47;;;1.40;99.90;;;;;;4919535;29;20176;-72
2022/03/03 03:53:26;;;;;;;18.63;11.63;;;1.30;99.90;;;;;;4915852;29;20606;-72
2022/03/03 03:55:51;;;;;;;20.07;12.33;;;1.30;99.90;;;;;;4921480;29;20226;-72
2022/03/03 03:58:17;;;;;;;21.87;12.77;;;1.30;99.90;;;;;;4893611;29;1240300;-72
2022/03/03 04:00:43;;;;;;;18.90;12.43;;;1.30;99.90;;;;;;4930527;29;20186;-72
2022/03/03 04:03:09;;;;;;;20.23;12.67;;;1.30;99.90;;;;;;4924749;29;20208;-72
2022/03/03 04:05:35;;;;;;;26.80;12.93;;;1.30;99.90;;;;;;4922837;29;20191;-72
2022/03/03 04:08:01;;;;;;;20.47;13.07;;;1.30;99.90;;;;;;4916794;29;20227;-72
2022/03/03 04:10:28;;;;;;;22.70;13.07;;;1.30;99.90;;;;;;4916765;29;20184;-71
2022/03/03 04:12:58;;;;;;;21.10;13.23;;;1.30;99.90;;;;;;4916813;29;20176;-72
2022/03/03 04:15:24;;;;;;;19.37;12.90;;;1.30;99.90;;;;;;4916566;29;20263;-71
2022/03/03 04:17:49;;;;;;;19.83;12.80;;;1.30;99.90;;;;;;4916439;29;20215;-71
2022/03/03 04:20:15;;;;;;;20.73;12.63;;;1.30;99.90;;;;;;4915262;29;20189;-72
2022/03/03 04:22:41;;;;;;;20.37;12.70;;;1.30;99.90;;;;;;4927359;29;20195;-72
2022/03/03 04:25:10;;;;;;;20.03;12.93;;;1.30;99.90;;;;;;4927506;29;20191;-73
2022/03/03 04:27:39;;;;;;;23.00;13.30;;;1.30;99.90;;;;;;4927158;29;20220;-71
2022/03/03 04:30:09;;;;;;;18.57;12.57;;;1.20;99.90;;;;;;4897766;29;20184;-72
2022/03/03 04:32:37;;;;;;;17.67;12.47;;;1.20;99.90;;;;;;4916432;29;20204;-71
2022/03/03 04:35:03;;;;;;;20.00;13.33;;;1.20;99.90;;;;;;4916300;29;20186;-72
2022/03/03 04:37:29;;;;;;;21.70;14.13;;;1.20;99.90;;;;;;4922217;29;20261;-72
2022/03/03 04:39:54;;;;;;;24.33;12.93;;;1.20;99.90;;;;;;4917652;29;20732;-72
2022/03/03 04:42:20;;;;;;;19.00;12.53;;;1.20;99.90;;;;;;4915532;29;20271;-71
2022/03/03 04:44:46;;;;;;;19.33;13.23;;;1.10;99.90;;;;;;4919151;29;20267;-73
2022/03/03 04:47:12;;;;;;;24.53;13.17;;;1.10;99.90;;;;;;4932239;29;20209;-72
2022/03/03 04:49:37;;;;;;;23.53;13.33;;;1.10;99.90;;;;;;4935051;29;20275;-73
2022/03/03 04:52:03;;;;;;;22.53;13.87;;;1.20;99.90;;;;;;4915956;29;20188;-72
2022/03/03 04:54:29;;;;;;;21.57;14.00;;;1.10;99.90;;;;;;4918863;29;20214;-72
2022/03/03 04:56:55;;;;;;;22.23;14.07;;;1.10;99.90;;;;;;4925116;29;20204;-72
2022/03/03 04:59:23;;;;;;;21.50;13.67;;;1.10;99.90;;;;;;4927221;29;20214;-71
2022/03/03 05:01:49;;;;;;;24.20;15.17;;;1.10;99.90;;;;;;4935922;29;20575;-72
2022/03/03 05:04:22;;;;;;;28.57;14.67;;;1.00;99.90;;;;;;4925025;29;20260;-74
2022/03/03 05:06:48;;;;;;;23.97;13.67;;;1.00;99.90;;;;;;4921381;29;20713;-73
2022/03/03 05:09:14;;;;;;;22.60;14.27;;;1.00;99.90;;;;;;4919652;29;20189;-72
2022/03/03 05:11:40;;;;;;;25.00;14.10;;;0.90;99.90;;;;;;4928951;29;20332;-73
2022/03/03 05:14:06;;;;;;;23.93;14.47;;;1.00;99.90;;;;;;4916460;29;20188;-72
2022/03/03 05:16:39;;;;;;;22.70;13.50;;;0.90;99.90;;;;;;4915059;29;20215;-74
2022/03/03 05:19:05;;;;;;;22.17;14.23;;;0.90;99.90;;;;;;4916461;29;20204;-72
2022/03/03 05:21:33;;;;;;;20.80;14.23;;;0.90;99.90;;;;;;4921987;29;20179;-71
2022/03/03 05:24:00;;;;;;;26.20;14.07;;;0.90;99.90;;;;;;4922868;29;20184;-73
2022/03/03 05:26:25;;;;;;;22.30;14.40;;;0.90;99.90;;;;;;4913760;29;20297;-72
2022/03/03 05:28:51;;;;;;;26.40;14.73;;;0.90;99.90;;;;;;4925246;29;20246;-73
2022/03/03 05:31:18;;;;;;;25.50;14.27;;;0.90;99.90;;;;;;4936205;29;20195;-74
2022/03/03 05:33:44;;;;;;;25.53;14.27;;;0.90;99.90;;;;;;4914865;29;20203;-73
2022/03/03 05:36:11;;;;;;;23.53;15.47;;;0.90;99.90;;;;;;4916240;29;20212;-73
2022/03/03 05:38:37;;;;;;;24.33;15.10;;;0.90;99.90;;;;;;4910042;29;20237;-73
2022/03/03 05:41:04;;;;;;;26.60;15.93;;;0.80;99.90;;;;;;4911197;29;20211;-73
2022/03/03 05:43:31;;;;;;;23.73;14.53;;;0.80;99.90;;;;;;4910861;29;20185;-74
2022/03/03 05:45:57;;;;;;;22.73;14.73;;;0.80;99.90;;;;;;4921740;29;20244;-73
2022/03/03 05:48:25;;;;;;;24.97;15.27;;;0.70;99.90;;;;;;4927522;29;20278;-72
2022/03/03 05:50:52;;;;;;;23.80;15.00;;;0.70;99.90;;;;;;4920726;29;20186;-72
2022/03/03 05:53:18;;;;;;;26.30;15.53;;;0.70;99.90;;;;;;4923037;29;20184;-73
2022/03/03 05:55:51;;;;;;;26.37;15.27;;;0.70;99.90;;;;;;4909970;29;20201;-72
2022/03/03 05:58:19;;;;;;;23.33;15.10;;;0.60;99.90;;;;;;4916797;29;20581;-72
2022/03/03 06:00:47;;;;;;;23.80;15.17;;;0.60;99.90;;;;;;4918098;29;20572;-72
2022/03/03 06:03:15;;;;;;;25.30;14.80;;;0.60;99.90;;;;;;4921034;29;20188;-72
2022/03/03 06:05:44;;;;;;;23.23;15.27;;;0.60;99.90;;;;;;4914595;29;20184;-72
2022/03/03 06:08:17;;;;;;;26.27;15.70;;;0.60;99.90;;;;;;4909617;29;20223;-72
2022/03/03 06:10:47;;;;;;;27.60;16.33;;;0.60;99.90;;;;;;4910653;29;20177;-72
2022/03/03 06:13:16;;;;;;;26.03;16.00;;;0.60;99.90;;;;;;4946914;28;20192;-72
2022/03/03 06:15:44;;;;;;;27.80;16.10;;;0.60;99.90;;;;;;4933020;29;20191;-72
2022/03/03 06:18:11;;;;;;;24.73;16.00;;;0.60;99.90;;;;;;4915768;29;20212;-72
2022/03/03 06:20:37;;;;;;;26.23;15.40;;;0.60;99.90;;;;;;4914488;29;20248;-72
2022/03/03 06:23:03;;;;;;;28.57;16.47;;;0.60;99.90;;;;;;4913989;29;20274;-72
2022/03/03 06:25:29;;;;;;;27.57;16.60;;;0.60;99.90;;;;;;4913971;29;20252;-72
2022/03/03 06:27:54;;;;;;;27.70;15.80;;;0.60;99.90;;;;;;4918818;29;20214;-72
2022/03/03 06:30:20;;;;;;;25.53;16.43;;;0.60;99.90;;;;;;4925501;29;20191;-72
2022/03/03 06:32:46;;;;;;;26.20;15.93;;;0.60;99.90;;;;;;4907747;29;20636;-72
2022/03/03 06:35:11;;;;;;;27.07;16.57;;;0.60;99.90;;;;;;4895932;29;20188;-72
2022/03/03 06:37:37;;;;;;;30.80;17.10;;;0.60;99.90;;;;;;4895741;29;20208;-72
2022/03/03 06:40:03;;;;;;;28.97;17.73;;;0.70;99.90;;;;;;4910662;29;20190;-71
2022/03/03 06:42:30;;;;;;;29.63;17.30;;;0.60;99.90;;;;;;4904985;29;20192;-72
2022/03/03 06:44:55;;;;;;;28.03;16.30;;;0.60;99.90;;;;;;4918136;29;20190;-71
2022/03/03 06:47:22;;;;;;;29.40;17.17;;;0.60;99.90;;;;;;4924756;29;20198;-71
2022/03/03 06:49:48;;;;;;;28.97;17.40;;;0.60;99.90;;;;;;4914200;29;20181;-72
2022/03/03 06:52:16;;;;;;;29.53;17.33;;;0.60;99.90;;;;;;4913998;29;20188;-72
2022/03/03 06:54:51;;;;;;;30.77;17.27;;;0.60;99.90;;;;;;4914027;29;20328;-72
2022/03/03 06:57:20;;;;;;;31.87;18.83;;;0.60;99.90;;;;;;4911672;29;20208;-72
2022/03/03 06:59:46;;;;;;;30.27;17.50;;;0.50;99.90;;;;;;4914745;29;20211;-72
2022/03/03 07:02:12;;;;;;;31.47;18.17;;;0.60;99.90;;;;;;4915216;29;20182;-70
2022/03/03 07:04:37;;;;;;;30.70;17.40;;;0.60;99.90;;;;;;4913734;29;20209;-70
2022/03/03 07:07:03;;;;;;;33.90;19.23;;;0.60;99.90;;;;;;4931285;29;20232;-71
2022/03/03 07:09:30;;;;;;;33.93;18.53;;;0.60;99.90;;;;;;4936500;29;20178;-71
2022/03/03 07:11:59;;;;;;;29.17;17.53;;;0.60;99.90;;;;;;4925337;29;20183;-70
2022/03/03 07:14:25;;;;;;;32.73;18.40;;;0.60;99.90;;;;;;4924072;29;20229;-71
2022/03/03 07:17:02;;;;;;;28.63;17.77;;;0.60;99.90;;;;;;4924534;29;20255;-70
2022/03/03 07:19:49;;;;;;;32.87;19.00;;;0.60;99.90;;;;;;4926117;29;20280;-70
2022/03/03 07:22:31;;;;;;;29.73;17.93;;;0.70;99.90;;;;;;4918806;29;20166;-70
2022/03/03 07:25:14;;;;;;;36.87;18.90;;;0.70;99.90;;;;;;4919006;29;20579;-70
2022/03/03 07:27:42;;;;;;;34.73;19.50;;;0.70;99.90;;;;;;4923018;29;20198;-70
2022/03/03 07:30:15;;;;;;;33.13;18.43;;;0.70;99.90;;;;;;4918788;29;20180;-70
2022/03/03 07:32:59;;;;;;;33.67;19.47;;;0.70;99.90;;;;;;4917550;29;20188;-71
2022/03/03 07:35:25;;;;;;;34.07;19.23;;;0.70;99.90;;;;;;4917288;29;20162;-70
2022/03/03 07:38:00;;;;;;;33.07;19.07;;;0.80;99.90;;;;;;4920751;29;20218;-70
2022/03/03 07:40:30;;;;;;;30.93;18.33;;;0.80;99.90;;;;;;4917356;29;20185;-71
2022/03/03 07:42:57;;;;;;;33.70;19.47;;;0.80;99.90;;;;;;4918651;29;20183;-70
2022/03/03 07:45:24;;;;;;;31.80;18.43;;;0.90;99.90;;;;;;4925937;29;20323;-70
2022/03/03 07:47:55;;;;;;;31.17;19.07;;;0.90;99.90;;;;;;4936902;29;20250;-71
2022/03/03 07:50:21;;;;;;;33.70;18.60;;;0.90;99.90;;;;;;4937368;29;20191;-71
2022/03/03 07:52:49;;;;;;;36.53;18.67;;;1.00;99.90;;;;;;4935097;29;20225;-71
2022/03/03 07:55:15;;;;;;;33.57;19.83;;;1.00;99.90;;;;;;4921114;29;20186;-71
2022/03/03 07:57:51;;;;;;;31.90;18.20;;;1.10;99.90;;;;;;4916342;29;20211;-70
2022/03/03 08:00:18;;;;;;;31.57;18.40;;;1.10;99.90;;;;;;4913223;29;20665;-71
2022/03/03 08:02:45;;;;;;;33.00;19.60;;;1.20;99.90;;;;;;4915916;29;20230;-71
2022/03/03 08:05:11;;;;;;;29.40;18.43;;;1.20;99.90;;;;;;4905460;29;20183;-71
2022/03/03 08:07:46;;;;;;;34.43;18.97;;;1.30;99.90;;;;;;4929399;29;20223;-71
2022/03/03 08:10:14;;;;;;;31.60;17.67;;;1.30;99.90;;;;;;4913164;29;20239;-71
2022/03/03 08:12:41;;;;;;;33.50;18.70;;;1.30;99.90;;;;;;4933945;29;20274;-70
2022/03/03 08:15:08;;;;;;;29.93;17.70;;;1.40;99.90;;;;;;4924040;29;20176;-71
2022/03/03 08:17:34;;;;;;;33.27;19.27;;;1.50;99.90;;;;;;4913318;29;20615;-71
2022/03/03 08:20:05;;;;;;;31.07;18.50;;;1.50;99.90;;;;;;4916391;29;20196;-70
2022/03/03 08:22:33;;;;;;;32.37;18.77;;;1.60;99.90;;;;;;4916292;29;20230;-70
2022/03/03 08:24:59;;;;;;;28.07;17.47;;;1.60;99.90;;;;;;4918310;29;20180;-70
2022/03/03 08:27:26;;;;;;;29.70;17.60;;;1.70;99.90;;;;;;4932430;29;20200;-72
2022/03/03 08:29:54;;;;;;;30.93;17.50;;;1.80;99.90;;;;;;4932881;29;20180;-72
2022/03/03 08:32:21;;;;;;;25.90;15.90;;;1.90;99.90;;;;;;4916393;29;20222;-71
2022/03/03 08:34:53;;;;;;;28.93;17.50;;;1.90;99.90;;;;;;4922204;29;20172;-71
2022/03/03 08:37:28;;;;;;;28.33;16.93;;;2.00;99.90;;;;;;4925954;29;20295;-71
2022/03/03 08:39:58;;;;;;;28.20;17.33;;;2.10;99.90;;;;;;4915632;29;20743;-71
2022/03/03 08:42:26;;;;;;;29.63;17.87;;;2.10;99.90;;;;;;4918903;29;20184;-71
2022/03/03 08:44:56;;;;;;;29.50;16.40;;;2.10;99.90;;;;;;4921153;29;20168;-71
2022/03/03 08:47:23;;;;;;;25.33;16.77;;;2.20;99.90;;;;;;4908326;29;20219;-71
2022/03/03 08:49:58;;;;;;;29.93;17.10;;;2.30;99.90;;;;;;4915506;29;20305;-71
2022/03/03 08:52:24;;;;;;;26.83;14.87;;;2.30;99.90;;;;;;4919726;29;20621;-71
2022/03/03 08:54:49;;;;;;;25.33;15.87;;;2.30;99.90;;;;;;4915867;29;20189;-71
2022/03/03 08:57:15;;;;;;;25.40;16.27;;;2.40;99.90;;;;;;4916191;29;20291;-71
2022/03/03 08:59:40;;;;;;;24.33;15.87;;;2.50;99.90;;;;;;4915518;29;20220;-71
2022/03/03 09:02:06;;;;;;;27.60;16.40;;;2.50;99.90;;;;;;4915541;29;20185;-71
2022/03/03 09:04:32;;;;;;;29.93;15.73;;;2.50;99.90;;;;;;4915857;29;20508;-71
2022/03/03 09:06:57;;;;;;;25.13;15.30;;;2.60;99.90;;;;;;4915203;29;20228;-70
2022/03/03 09:09:23;;;;;;;26.83;15.17;;;2.60;99.90;;;;;;4915681;29;20196;-71
2022/03/03 09:11:48;;;;;;;26.67;15.87;;;2.70;99.90;;;;;;4916718;29;20268;-71
2022/03/03 09:14:14;;;;;;;26.47;16.00;;;2.80;99.90;;;;;;4916913;29;20212;-71
2022/03/03 09:16:40;;;;;;;25.90;15.33;;;2.80;99.90;;;;;;4927326;29;20550;-71
2022/03/03 09:19:07;;;;;;;28.60;15.37;;;2.80;99.90;;;;;;4915628;29;20210;-71
2022/03/03 09:21:33;;;;;;;22.03;14.00;;;2.90;99.90;;;;;;4919280;29;20177;-71
2022/03/03 09:23:58;;;;;;;25.23;14.30;;;2.90;99.90;;;;;;4923948;29;20184;-72
2022/03/03 09:26:24;;;;;;;25.23;14.73;;;3.00;99.90;;;;;;4933954;29;20298;-71
2022/03/03 09:28:49;;;;;;;21.67;14.07;;;3.10;99.90;;;;;;4921882;29;20176;-71
2022/03/03 09:31:15;;;;;;;25.13;14.83;;;3.30;99.90;;;;;;4915193;29;20182;-72
2022/03/03 09:33:41;;;;;;;25.23;15.30;;;3.50;99.90;;;;;;4915314;29;20278;-71
2022/03/03 09:36:06;;;;;;;23.13;14.57;;;3.60;99.90;;;;;;4916392;29;20205;-71
2022/03/03 09:38:32;;;;;;;20.67;14.30;;;3.60;99.90;;;;;;4915666;29;20270;-72
2022/03/03 09:40:58;;;;;;;23.53;13.90;;;3.70;99.90;;;;;;4914213;29;20191;-71
2022/03/03 09:43:25;;;;;;;21.63;13.83;;;3.80;99.90;;;;;;4915914;29;20181;-72
2022/03/03 09:45:51;;;;;;;21.63;13.97;;;3.90;99.90;;;;;;4918969;29;20188;-73
2022/03/03 09:48:17;;;;;;;21.33;13.47;;;4.00;99.90;;;;;;4931042;29;20180;-72
2022/03/03 09:50:42;;;;;;;23.40;13.70;;;4.10;99.90;;;;;;4915840;29;20188;-71
2022/03/03 09:53:16;;;;;;;21.43;14.07;;;4.10;99.90;;;;;;4914933;29;20551;-71
2022/03/03 09:55:44;;;;;;;21.10;14.77;;;4.20;99.90;;;;;;4914799;29;20238;-71
2022/03/03 09:58:10;;;;;;;27.27;15.20;;;4.30;99.90;;;;;;4914061;29;20218;-71
2022/03/03 10:00:40;;;;;;;20.20;13.30;;;4.40;99.90;;;;;;4914879;29;20283;-72
2022/03/03 10:03:16;;;;;;;24.70;14.57;;;4.40;99.90;;;;;;4914466;29;20179;-71
2022/03/03 10:05:47;;;;;;;20.27;13.47;;;4.50;99.90;;;;;;4921026;29;20197;-71
2022/03/03 10:08:15;;;;;;;28.13;15.70;;;4.60;99.90;;;;;;4918514;29;20322;-71
2022/03/03 10:10:48;;;;;;;20.33;13.77;;;4.60;99.90;;;;;;4914609;29;20287;-71
2022/03/03 10:13:16;;;;;;;23.30;13.33;;;4.70;99.90;;;;;;4929260;29;20186;-70
2022/03/03 10:15:49;;;;;;;19.47;12.77;;;4.70;99.90;;;;;;4914603;29;20189;-70
2022/03/03 10:18:16;;;;;;;22.63;13.73;;;4.70;99.90;;;;;;4914389;29;20203;-70
2022/03/03 10:20:50;;;;;;;24.53;13.83;;;4.80;99.90;;;;;;4914533;29;20185;-70
2022/03/03 10:23:17;;;;;;;23.47;13.27;;;4.90;99.90;;;;;;4914295;29;20241;-70
2022/03/03 10:25:45;;;;;;;20.17;13.37;;;4.90;99.90;;;;;;4917069;29;20189;-70
2022/03/03 10:28:19;;;;;;;22.27;12.83;;;5.00;99.90;;;;;;4930042;29;20238;-70
2022/03/03 10:31:10;;;;;;;21.67;13.30;;;5.00;99.90;;;;;;4930980;29;20183;-70
2022/03/03 10:33:40;;;;;;;19.70;12.83;;;5.10;99.90;;;;;;4914341;29;20168;-71
2022/03/03 10:36:16;;;;;;;21.00;12.87;;;5.30;99.90;;;;;;4914085;29;20179;-70
2022/03/03 10:38:59;;;;;;;20.87;12.93;;;5.30;99.90;;;;;;4913673;29;20247;-70
2022/03/03 10:41:30;;;;;;;22.57;12.47;;;5.40;99.90;;;;;;4925801;29;20238;-73
2022/03/03 10:43:57;;;;;;;20.53;13.13;;;5.50;99.90;;;;;;4933822;29;20189;-71
2022/03/03 10:46:23;;;;;;;21.00;13.07;;;5.60;99.90;;;;;;4917791;29;20203;-73
2022/03/03 10:48:49;;;;;;;19.67;13.00;;;5.70;99.90;;;;;;4918060;29;20184;-72
2022/03/03 10:51:16;;;;;;;23.40;14.20;;;5.70;99.90;;;;;;4919382;29;20199;-72
2022/03/03 10:53:45;;;;;;;18.77;13.10;;;5.80;99.90;;;;;;4918196;29;20330;-72
2022/03/03 10:56:17;;;;;;;19.53;12.43;;;5.80;99.90;;;;;;4925414;29;20204;-72
2022/03/03 10:58:54;;;;;;;25.73;13.83;;;5.90;99.90;;;;;;4929105;29;20307;-72
2022/03/03 11:01:23;;;;;;;21.50;13.50;;;5.90;99.90;;;;;;4932582;29;20174;-72
2022/03/03 11:03:49;;;;;;;21.43;12.83;;;5.90;99.90;;;;;;4917077;29;20172;-72
2022/03/03 11:06:26;;;;;;;19.33;12.67;;;6.00;99.90;;;;;;4940165;29;20207;-73
2022/03/03 11:08:54;;;;;;;18.63;12.53;;;6.10;99.90;;;;;;4931009;29;20180;-72
2022/03/03 11:11:21;;;;;;;19.43;13.63;;;6.10;99.90;;;;;;4918044;29;20259;-72
2022/03/03 11:13:49;;;;;;;20.50;13.97;;;6.20;99.90;;;;;;4934920;29;20171;-72
2022/03/03 11:16:23;;;;;;;21.23;13.70;;;6.10;99.90;;;;;;4921028;29;20202;-72
2022/03/03 11:18:49;;;;;;;20.87;14.00;;;6.20;99.90;;;;;;4932506;29;20199;-73
2022/03/03 11:21:16;;;;;;;23.63;14.03;;;6.30;99.90;;;;;;4919123;29;20633;-72
2022/03/03 11:23:46;;;;;;;22.23;13.67;;;6.30;99.90;;;;;;4918780;29;20176;-72
2022/03/03 11:26:34;;;;;;;18.83;12.40;;;6.30;99.90;;;;;;4922630;29;20291;-72
2022/03/03 11:29:13;;;;;;;20.70;13.10;;;6.40;99.90;;;;;;4912427;29;20212;-73
2022/03/03 11:31:40;;;;;;;20.10;12.97;;;6.50;99.90;;;;;;4920400;29;20263;-72
2022/03/03 11:34:31;;;;;;;19.73;11.73;;;6.50;99.90;;;;;;4916356;29;20239;-72
2022/03/03 11:37:01;;;;;;;19.03;12.90;;;6.50;99.90;;;;;;4917052;29;20260;-72
2022/03/03 11:39:45;;;;;;;19.20;13.03;;;6.50;99.90;;;;;;4917264;29;20692;-72
2022/03/03 11:42:17;;;;;;;19.67;13.60;;;6.50;99.90;;;;;;4918036;29;20180;-72
2022/03/03 11:44:43;;;;;;;31.67;14.17;;;6.50;99.90;;;;;;4928740;29;20183;-73
2022/03/03 11:47:23;;;;;;;21.27;13.67;;;6.50;99.90;;;;;;4918964;29;20204;-72
2022/03/03 11:49:58;;;;;;;21.63;13.07;;;6.50;99.90;;;;;;4926146;29;20262;-72
2022/03/03 11:52:24;;;;;;;19.83;13.63;;;6.60;99.90;;;;;;4932345;29;20296;-72
2022/03/03 11:54:54;;;;;;;17.40;11.97;;;6.60;99.90;;;;;;4917327;29;20231;-72
2022/03/03 11:57:23;;;;;;;17.90;11.93;;;6.60;99.90;;;;;;4916629;29;20558;-72
2022/03/03 11:59:49;;;;;;;17.33;11.20;;;6.70;99.90;;;;;;4916879;29;20291;-72
2022/03/03 12:02:28;;;;;;;18.07;12.17;;;6.80;99.90;;;;;;4915849;29;20554;-72
2022/03/03 12:05:28;;;;;;;18.90;11.77;;;6.80;99.90;;;;;;4915366;29;20185;-72
2022/03/03 12:08:01;;;;;;;20.20;11.77;;;6.90;99.90;;;;;;4939388;29;20228;-72
2022/03/03 12:10:28;;;;;;;18.87;12.10;;;6.90;99.90;;;;;;4935303;29;20200;-72
2022/03/03 12:13:26;;;;;;;15.80;11.80;;;6.90;99.90;;;;;;4914453;29;20184;-72
2022/03/03 12:16:18;;;;;;;18.43;11.80;;;6.90;99.90;;;;;;4921355;29;20526;-73
2022/03/03 12:19:04;;;;;;;16.37;11.20;;;6.90;99.90;;;;;;4931863;29;20602;-72
2022/03/03 12:21:34;;;;;;;18.30;11.37;;;7.00;99.90;;;;;;4925452;29;20644;-72
2022/03/03 12:24:17;;;;;;;16.67;10.90;;;7.10;99.90;;;;;;4938233;28;20183;-72
2022/03/03 12:26:55;;;;;;;15.20;10.80;;;7.10;99.90;;;;;;4922630;29;20229;-73
2022/03/03 12:29:39;;;;;;;17.60;12.03;;;7.20;99.90;;;;;;4938063;29;20209;-72
2022/03/03 12:32:32;;;;;;;18.90;11.93;;;7.20;99.90;;;;;;4929462;29;20188;-73
2022/03/03 12:35:23;;;;;;;17.33;11.10;;;7.20;99.90;;;;;;4919117;29;20243;-73
2022/03/03 12:37:49;;;;;;;17.60;12.10;;;7.20;99.90;;;;;;4921321;29;20323;-73
2022/03/03 12:40:17;;;;;;;17.17;12.00;;;7.30;99.90;;;;;;4915150;29;20177;-72
2022/03/03 12:42:45;;;;;;;16.33;11.53;;;7.30;99.90;;;;;;4916083;29;20188;-73
2022/03/03 12:45:14;;;;;;;19.77;11.60;;;7.30;99.90;;;;;;4910211;29;20389;-73